sensor_id;sensor_type;location;lat;lon;timestamp;P1;durP1;ratioP1;P2;durP2;ratioP2
38693;SDS011;24447;43.460;25.744;2022-07-11T00:02:10;25.73;;;13.27;;
38693;SDS011;24447;43.460;25.744;2022-07-11T00:04:37;25.98;;;13.30;;
38693;SDS011;24447;43.460;25.744;2022-07-11T00:07:03;25.48;;;12.50;;
38693;SDS011;24447;43.460;25.744;2022-07-11T00:09:30;28.27;;;13.02;;
38693;SDS011;24447;43.460;25.744;2022-07-11T00:11:56;24.77;;;13.38;;
38693;SDS011;24447;43.460;25.744;2022-07-11T00:14:22;25.45;;;13.23;;
38693;SDS011;24447;43.460;25.744;2022-07-11T00:16:50;26.58;;;13.23;;
38693;SDS011;24447;43.460;25.744;2022-07-11T00:19:17;27.58;;;13.75;;
38693;SDS011;24447;43.460;25.744;2022-07-11T00:21:45;28.98;;;14.23;;
38693;SDS011;24447;43.460;25.744;2022-07-11T00:24:11;22.20;;;13.10;;
38693;SDS011;24447;43.460;25.744;2022-07-11T00:26:37;25.75;;;13.45;;
38693;SDS011;24447;43.460;25.744;2022-07-11T00:29:04;28.85;;;13.40;;
38693;SDS011;24447;43.460;25.744;2022-07-11T00:31:30;27.23;;;13.70;;
38693;SDS011;24447;43.460;25.744;2022-07-11T00:33:57;25.30;;;13.90;;
38693;SDS011;24447;43.460;25.744;2022-07-11T00:36:23;31.13;;;15.88;;
38693;SDS011;24447;43.460;25.744;2022-07-11T00:38:49;30.33;;;14.70;;
38693;SDS011;24447;43.460;25.744;2022-07-11T00:41:15;25.25;;;14.05;;
38693;SDS011;24447;43.460;25.744;2022-07-11T00:43:42;22.55;;;12.95;;
38693;SDS011;24447;43.460;25.744;2022-07-11T00:46:08;27.83;;;14.05;;
38693;SDS011;24447;43.460;25.744;2022-07-11T00:48:35;23.63;;;13.65;;
38693;SDS011;24447;43.460;25.744;2022-07-11T00:51:02;26.15;;;13.88;;
38693;SDS011;24447;43.460;25.744;2022-07-11T00:53:29;25.33;;;15.45;;
38693;SDS011;24447;43.460;25.744;2022-07-11T00:55:55;29.13;;;15.70;;
38693;SDS011;24447;43.460;25.744;2022-07-11T00:58:22;30.77;;;15.63;;
38693;SDS011;24447;43.460;25.744;2022-07-11T01:00:48;30.13;;;14.50;;
38693;SDS011;24447;43.460;25.744;2022-07-11T01:03:14;29.08;;;14.75;;
38693;SDS011;24447;43.460;25.744;2022-07-11T01:05:41;27.67;;;16.15;;
38693;SDS011;24447;43.460;25.744;2022-07-11T01:08:07;23.33;;;14.60;;
38693;SDS011;24447;43.460;25.744;2022-07-11T01:10:33;28.10;;;13.88;;
38693;SDS011;24447;43.460;25.744;2022-07-11T01:12:59;27.08;;;14.63;;
38693;SDS011;24447;43.460;25.744;2022-07-11T01:15:25;28.98;;;14.95;;
38693;SDS011;24447;43.460;25.744;2022-07-11T01:17:51;27.13;;;14.63;;
38693;SDS011;24447;43.460;25.744;2022-07-11T01:20:18;33.72;;;14.40;;
38693;SDS011;24447;43.460;25.744;2022-07-11T01:22:48;29.80;;;15.25;;
38693;SDS011;24447;43.460;25.744;2022-07-11T01:25:17;25.65;;;15.10;;
38693;SDS011;24447;43.460;25.744;2022-07-11T01:28:00;30.15;;;15.40;;
38693;SDS011;24447;43.460;25.744;2022-07-11T01:30:28;26.20;;;14.25;;
38693;SDS011;24447;43.460;25.744;2022-07-11T01:32:54;30.55;;;14.02;;
38693;SDS011;24447;43.460;25.744;2022-07-11T01:35:21;29.40;;;13.63;;
38693;SDS011;24447;43.460;25.744;2022-07-11T01:37:48;26.10;;;13.07;;
38693;SDS011;24447;43.460;25.744;2022-07-11T01:40:14;29.05;;;13.27;;
38693;SDS011;24447;43.460;25.744;2022-07-11T01:42:41;27.30;;;13.55;;
38693;SDS011;24447;43.460;25.744;2022-07-11T01:45:07;27.60;;;14.02;;
38693;SDS011;24447;43.460;25.744;2022-07-11T01:47:34;25.70;;;13.80;;
38693;SDS011;24447;43.460;25.744;2022-07-11T01:50:00;25.13;;;12.18;;
38693;SDS011;24447;43.460;25.744;2022-07-11T01:52:26;25.70;;;11.93;;
38693;SDS011;24447;43.460;25.744;2022-07-11T01:54:53;23.52;;;12.38;;
38693;SDS011;24447;43.460;25.744;2022-07-11T01:57:19;21.77;;;11.48;;
38693;SDS011;24447;43.460;25.744;2022-07-11T01:59:46;22.83;;;11.30;;
38693;SDS011;24447;43.460;25.744;2022-07-11T02:02:12;22.80;;;11.45;;
38693;SDS011;24447;43.460;25.744;2022-07-11T02:04:38;20.77;;;11.05;;
38693;SDS011;24447;43.460;25.744;2022-07-11T02:07:05;22.52;;;10.50;;
38693;SDS011;24447;43.460;25.744;2022-07-11T02:09:31;18.60;;;10.10;;
38693;SDS011;24447;43.460;25.744;2022-07-11T02:11:57;25.38;;;11.82;;
38693;SDS011;24447;43.460;25.744;2022-07-11T02:14:23;23.10;;;10.30;;
38693;SDS011;24447;43.460;25.744;2022-07-11T02:16:49;24.05;;;11.63;;
38693;SDS011;24447;43.460;25.744;2022-07-11T02:19:14;18.33;;;10.43;;
38693;SDS011;24447;43.460;25.744;2022-07-11T02:21:41;21.98;;;10.95;;
38693;SDS011;24447;43.460;25.744;2022-07-11T02:24:07;23.40;;;10.13;;
38693;SDS011;24447;43.460;25.744;2022-07-11T02:26:34;19.38;;;10.15;;
38693;SDS011;24447;43.460;25.744;2022-07-11T02:29:00;25.13;;;10.30;;
38693;SDS011;24447;43.460;25.744;2022-07-11T02:31:26;23.60;;;9.63;;
38693;SDS011;24447;43.460;25.744;2022-07-11T02:33:52;21.92;;;9.00;;
38693;SDS011;24447;43.460;25.744;2022-07-11T02:36:18;18.80;;;9.50;;
38693;SDS011;24447;43.460;25.744;2022-07-11T02:38:44;16.67;;;9.35;;
38693;SDS011;24447;43.460;25.744;2022-07-11T02:41:10;24.15;;;10.77;;
38693;SDS011;24447;43.460;25.744;2022-07-11T02:43:37;19.67;;;9.77;;
38693;SDS011;24447;43.460;25.744;2022-07-11T02:46:03;23.25;;;11.02;;
38693;SDS011;24447;43.460;25.744;2022-07-11T02:48:30;21.77;;;11.10;;
38693;SDS011;24447;43.460;25.744;2022-07-11T02:50:57;17.55;;;9.40;;
38693;SDS011;24447;43.460;25.744;2022-07-11T02:53:23;20.90;;;9.82;;
38693;SDS011;24447;43.460;25.744;2022-07-11T02:55:49;20.20;;;8.98;;
38693;SDS011;24447;43.460;25.744;2022-07-11T02:58:15;18.55;;;9.68;;
38693;SDS011;24447;43.460;25.744;2022-07-11T03:00:41;16.08;;;7.88;;
38693;SDS011;24447;43.460;25.744;2022-07-11T03:03:07;15.55;;;8.43;;
38693;SDS011;24447;43.460;25.744;2022-07-11T03:05:33;16.20;;;8.52;;
38693;SDS011;24447;43.460;25.744;2022-07-11T03:08:00;17.67;;;7.55;;
38693;SDS011;24447;43.460;25.744;2022-07-11T03:10:25;23.70;;;9.43;;
38693;SDS011;24447;43.460;25.744;2022-07-11T03:12:51;25.48;;;8.55;;
38693;SDS011;24447;43.460;25.744;2022-07-11T03:15:17;21.20;;;8.07;;
38693;SDS011;24447;43.460;25.744;2022-07-11T03:17:44;16.00;;;7.78;;
38693;SDS011;24447;43.460;25.744;2022-07-11T03:20:10;19.60;;;7.57;;
38693;SDS011;24447;43.460;25.744;2022-07-11T03:22:36;17.05;;;7.22;;
38693;SDS011;24447;43.460;25.744;2022-07-11T03:25:03;15.77;;;8.05;;
38693;SDS011;24447;43.460;25.744;2022-07-11T03:27:31;19.80;;;9.00;;
38693;SDS011;24447;43.460;25.744;2022-07-11T03:30:00;14.35;;;8.18;;
38693;SDS011;24447;43.460;25.744;2022-07-11T03:32:26;18.73;;;7.43;;
38693;SDS011;24447;43.460;25.744;2022-07-11T03:34:52;16.08;;;8.25;;
38693;SDS011;24447;43.460;25.744;2022-07-11T03:37:36;15.98;;;7.72;;
38693;SDS011;24447;43.460;25.744;2022-07-11T03:40:02;15.77;;;6.82;;
38693;SDS011;24447;43.460;25.744;2022-07-11T03:42:29;16.02;;;6.60;;
38693;SDS011;24447;43.460;25.744;2022-07-11T03:44:55;14.52;;;7.40;;
38693;SDS011;24447;43.460;25.744;2022-07-11T03:47:21;27.77;;;8.18;;
38693;SDS011;24447;43.460;25.744;2022-07-11T03:49:47;10.45;;;6.57;;
38693;SDS011;24447;43.460;25.744;2022-07-11T03:52:13;14.02;;;5.97;;
38693;SDS011;24447;43.460;25.744;2022-07-11T03:54:38;20.67;;;6.18;;
38693;SDS011;24447;43.460;25.744;2022-07-11T03:57:05;9.88;;;5.18;;
38693;SDS011;24447;43.460;25.744;2022-07-11T03:59:31;13.38;;;4.28;;
38693;SDS011;24447;43.460;25.744;2022-07-11T04:01:57;9.73;;;4.95;;
38693;SDS011;24447;43.460;25.744;2022-07-11T04:04:23;8.52;;;5.35;;
38693;SDS011;24447;43.460;25.744;2022-07-11T04:06:49;20.63;;;5.50;;
38693;SDS011;24447;43.460;25.744;2022-07-11T04:09:15;13.55;;;4.57;;
38693;SDS011;24447;43.460;25.744;2022-07-11T04:11:41;12.02;;;4.25;;
38693;SDS011;24447;43.460;25.744;2022-07-11T04:14:07;7.03;;;3.75;;
38693;SDS011;24447;43.460;25.744;2022-07-11T04:16:33;19.20;;;4.78;;
38693;SDS011;24447;43.460;25.744;2022-07-11T04:18:59;14.00;;;3.92;;
38693;SDS011;24447;43.460;25.744;2022-07-11T04:21:25;10.88;;;3.80;;
38693;SDS011;24447;43.460;25.744;2022-07-11T04:23:51;13.52;;;3.95;;
38693;SDS011;24447;43.460;25.744;2022-07-11T04:26:17;6.90;;;3.13;;
38693;SDS011;24447;43.460;25.744;2022-07-11T04:28:43;8.00;;;3.20;;
38693;SDS011;24447;43.460;25.744;2022-07-11T04:31:10;12.88;;;4.78;;
38693;SDS011;24447;43.460;25.744;2022-07-11T04:33:36;11.25;;;4.13;;
38693;SDS011;24447;43.460;25.744;2022-07-11T04:36:02;6.78;;;3.38;;
38693;SDS011;24447;43.460;25.744;2022-07-11T04:38:28;19.95;;;4.38;;
38693;SDS011;24447;43.460;25.744;2022-07-11T04:40:54;10.43;;;3.38;;
38693;SDS011;24447;43.460;25.744;2022-07-11T04:43:20;9.68;;;3.45;;
38693;SDS011;24447;43.460;25.744;2022-07-11T04:45:46;8.45;;;3.42;;
38693;SDS011;24447;43.460;25.744;2022-07-11T04:48:12;4.68;;;3.42;;
38693;SDS011;24447;43.460;25.744;2022-07-11T04:50:38;10.52;;;3.72;;
38693;SDS011;24447;43.460;25.744;2022-07-11T04:53:04;6.15;;;3.30;;
38693;SDS011;24447;43.460;25.744;2022-07-11T04:55:30;8.20;;;3.50;;
38693;SDS011;24447;43.460;25.744;2022-07-11T04:57:56;11.48;;;2.90;;
38693;SDS011;24447;43.460;25.744;2022-07-11T05:00:23;5.40;;;3.13;;
38693;SDS011;24447;43.460;25.744;2022-07-11T05:02:49;6.38;;;2.45;;
38693;SDS011;24447;43.460;25.744;2022-07-11T05:05:15;4.68;;;2.67;;
38693;SDS011;24447;43.460;25.744;2022-07-11T05:07:40;8.25;;;3.17;;
38693;SDS011;24447;43.460;25.744;2022-07-11T05:10:06;7.95;;;3.30;;
38693;SDS011;24447;43.460;25.744;2022-07-11T05:12:33;4.78;;;2.95;;
38693;SDS011;24447;43.460;25.744;2022-07-11T05:14:59;7.90;;;2.97;;
38693;SDS011;24447;43.460;25.744;2022-07-11T05:17:25;7.72;;;3.22;;
38693;SDS011;24447;43.460;25.744;2022-07-11T05:38:13;3.70;;;2.63;;
38693;SDS011;24447;43.460;25.744;2022-07-11T05:40:39;10.43;;;3.22;;
38693;SDS011;24447;43.460;25.744;2022-07-11T05:43:07;5.95;;;2.90;;
38693;SDS011;24447;43.460;25.744;2022-07-11T05:45:33;8.32;;;2.55;;
38693;SDS011;24447;43.460;25.744;2022-07-11T05:47:59;7.47;;;3.33;;
38693;SDS011;24447;43.460;25.744;2022-07-11T05:50:24;7.00;;;2.60;;
38693;SDS011;24447;43.460;25.744;2022-07-11T05:52:51;5.00;;;2.83;;
38693;SDS011;24447;43.460;25.744;2022-07-11T05:55:17;8.68;;;2.95;;
38693;SDS011;24447;43.460;25.744;2022-07-11T05:57:43;7.53;;;2.67;;
38693;SDS011;24447;43.460;25.744;2022-07-11T06:00:09;8.88;;;3.10;;
38693;SDS011;24447;43.460;25.744;2022-07-11T06:02:36;3.35;;;2.30;;
38693;SDS011;24447;43.460;25.744;2022-07-11T06:05:02;7.28;;;2.80;;
38693;SDS011;24447;43.460;25.744;2022-07-11T06:07:28;7.05;;;3.05;;
38693;SDS011;24447;43.460;25.744;2022-07-11T06:10:12;9.63;;;3.03;;
38693;SDS011;24447;43.460;25.744;2022-07-11T06:12:39;6.93;;;3.05;;
38693;SDS011;24447;43.460;25.744;2022-07-11T06:15:07;7.68;;;2.95;;
38693;SDS011;24447;43.460;25.744;2022-07-11T06:17:33;3.85;;;2.53;;
38693;SDS011;24447;43.460;25.744;2022-07-11T06:19:59;5.22;;;2.50;;
38693;SDS011;24447;43.460;25.744;2022-07-11T06:22:25;3.75;;;2.40;;
38693;SDS011;24447;43.460;25.744;2022-07-11T06:24:51;4.05;;;2.75;;
38693;SDS011;24447;43.460;25.744;2022-07-11T06:27:17;6.60;;;2.90;;
38693;SDS011;24447;43.460;25.744;2022-07-11T06:29:43;7.80;;;2.65;;
38693;SDS011;24447;43.460;25.744;2022-07-11T06:32:09;7.97;;;2.63;;
38693;SDS011;24447;43.460;25.744;2022-07-11T06:34:35;6.65;;;3.10;;
38693;SDS011;24447;43.460;25.744;2022-07-11T06:37:02;3.00;;;2.30;;
38693;SDS011;24447;43.460;25.744;2022-07-11T06:39:28;9.65;;;2.85;;
38693;SDS011;24447;43.460;25.744;2022-07-11T06:41:54;5.32;;;2.47;;
38693;SDS011;24447;43.460;25.744;2022-07-11T06:44:20;5.72;;;2.50;;
38693;SDS011;24447;43.460;25.744;2022-07-11T06:46:46;5.43;;;2.90;;
38693;SDS011;24447;43.460;25.744;2022-07-11T06:49:13;4.68;;;2.63;;
38693;SDS011;24447;43.460;25.744;2022-07-11T06:51:39;11.15;;;2.72;;
38693;SDS011;24447;43.460;25.744;2022-07-11T06:54:05;8.77;;;2.78;;
38693;SDS011;24447;43.460;25.744;2022-07-11T06:56:31;6.32;;;2.70;;
38693;SDS011;24447;43.460;25.744;2022-07-11T06:58:57;5.03;;;2.80;;
38693;SDS011;24447;43.460;25.744;2022-07-11T07:01:24;4.07;;;2.15;;
38693;SDS011;24447;43.460;25.744;2022-07-11T07:03:50;4.15;;;3.13;;
38693;SDS011;24447;43.460;25.744;2022-07-11T07:06:16;9.25;;;2.13;;
38693;SDS011;24447;43.460;25.744;2022-07-11T07:08:42;3.25;;;2.35;;
38693;SDS011;24447;43.460;25.744;2022-07-11T07:11:08;5.40;;;2.40;;
38693;SDS011;24447;43.460;25.744;2022-07-11T07:13:34;6.05;;;2.50;;
38693;SDS011;24447;43.460;25.744;2022-07-11T07:16:00;3.92;;;2.70;;
38693;SDS011;24447;43.460;25.744;2022-07-11T07:18:26;5.97;;;2.50;;
38693;SDS011;24447;43.460;25.744;2022-07-11T07:20:52;6.95;;;2.25;;
38693;SDS011;24447;43.460;25.744;2022-07-11T07:23:18;7.32;;;2.70;;
38693;SDS011;24447;43.460;25.744;2022-07-11T07:25:45;4.97;;;3.05;;
38693;SDS011;24447;43.460;25.744;2022-07-11T07:28:11;5.28;;;2.88;;
38693;SDS011;24447;43.460;25.744;2022-07-11T07:30:37;6.07;;;2.60;;
38693;SDS011;24447;43.460;25.744;2022-07-11T07:33:03;5.22;;;2.28;;
38693;SDS011;24447;43.460;25.744;2022-07-11T07:35:29;6.47;;;2.42;;
38693;SDS011;24447;43.460;25.744;2022-07-11T07:37:56;6.65;;;2.75;;
38693;SDS011;24447;43.460;25.744;2022-07-11T07:40:22;5.53;;;2.20;;
38693;SDS011;24447;43.460;25.744;2022-07-11T07:42:48;7.32;;;2.30;;
38693;SDS011;24447;43.460;25.744;2022-07-11T07:45:14;3.95;;;2.35;;
38693;SDS011;24447;43.460;25.744;2022-07-11T07:47:40;7.93;;;2.38;;
38693;SDS011;24447;43.460;25.744;2022-07-11T07:50:07;5.68;;;2.53;;
38693;SDS011;24447;43.460;25.744;2022-07-11T07:52:33;4.95;;;2.15;;
38693;SDS011;24447;43.460;25.744;2022-07-11T07:54:59;8.02;;;2.13;;
38693;SDS011;24447;43.460;25.744;2022-07-11T07:57:25;5.63;;;2.90;;
38693;SDS011;24447;43.460;25.744;2022-07-11T07:59:50;6.63;;;2.33;;
38693;SDS011;24447;43.460;25.744;2022-07-11T08:02:36;6.78;;;2.47;;
38693;SDS011;24447;43.460;25.744;2022-07-11T08:05:02;7.00;;;2.53;;
38693;SDS011;24447;43.460;25.744;2022-07-11T08:07:28;7.55;;;2.72;;
38693;SDS011;24447;43.460;25.744;2022-07-11T08:09:54;4.68;;;2.22;;
38693;SDS011;24447;43.460;25.744;2022-07-11T08:12:20;6.70;;;2.22;;
38693;SDS011;24447;43.460;25.744;2022-07-11T08:14:46;5.70;;;2.15;;
38693;SDS011;24447;43.460;25.744;2022-07-11T08:17:12;10.10;;;1.92;;
38693;SDS011;24447;43.460;25.744;2022-07-11T08:19:38;6.63;;;2.58;;
38693;SDS011;24447;43.460;25.744;2022-07-11T08:22:04;7.25;;;2.28;;
38693;SDS011;24447;43.460;25.744;2022-07-11T08:24:30;3.42;;;2.00;;
38693;SDS011;24447;43.460;25.744;2022-07-11T08:26:56;8.18;;;2.58;;
38693;SDS011;24447;43.460;25.744;2022-07-11T08:29:21;6.20;;;2.25;;
38693;SDS011;24447;43.460;25.744;2022-07-11T08:31:47;3.70;;;2.20;;
38693;SDS011;24447;43.460;25.744;2022-07-11T08:34:13;5.03;;;2.42;;
38693;SDS011;24447;43.460;25.744;2022-07-11T08:36:39;4.82;;;2.58;;
38693;SDS011;24447;43.460;25.744;2022-07-11T08:39:05;8.73;;;2.53;;
38693;SDS011;24447;43.460;25.744;2022-07-11T08:41:31;9.05;;;2.83;;
38693;SDS011;24447;43.460;25.744;2022-07-11T08:43:58;11.68;;;3.40;;
38693;SDS011;24447;43.460;25.744;2022-07-11T08:46:24;10.30;;;3.50;;
38693;SDS011;24447;43.460;25.744;2022-07-11T08:48:52;9.77;;;3.47;;
38693;SDS011;24447;43.460;25.744;2022-07-11T08:51:18;11.77;;;3.80;;
38693;SDS011;24447;43.460;25.744;2022-07-11T08:53:47;13.65;;;4.28;;
38693;SDS011;24447;43.460;25.744;2022-07-11T08:56:13;9.68;;;4.10;;
38693;SDS011;24447;43.460;25.744;2022-07-11T08:58:43;9.70;;;3.03;;
38693;SDS011;24447;43.460;25.744;2022-07-11T09:01:11;3.78;;;2.45;;
38693;SDS011;24447;43.460;25.744;2022-07-11T09:03:39;9.95;;;3.28;;
38693;SDS011;24447;43.460;25.744;2022-07-11T09:06:05;5.75;;;2.83;;
38693;SDS011;24447;43.460;25.744;2022-07-11T09:08:31;6.63;;;3.00;;
38693;SDS011;24447;43.460;25.744;2022-07-11T09:10:57;7.07;;;2.45;;
38693;SDS011;24447;43.460;25.744;2022-07-11T09:13:27;9.40;;;2.03;;
38693;SDS011;24447;43.460;25.744;2022-07-11T09:16:00;8.55;;;2.15;;
38693;SDS011;24447;43.460;25.744;2022-07-11T09:18:37;5.93;;;2.20;;
38693;SDS011;24447;43.460;25.744;2022-07-11T09:21:07;11.20;;;2.35;;
38693;SDS011;24447;43.460;25.744;2022-07-11T09:23:55;6.53;;;2.00;;
38693;SDS011;24447;43.460;25.744;2022-07-11T09:26:42;7.55;;;2.03;;
38693;SDS011;24447;43.460;25.744;2022-07-11T09:29:15;6.97;;;1.70;;
38693;SDS011;24447;43.460;25.744;2022-07-11T09:31:44;4.53;;;1.38;;
38693;SDS011;24447;43.460;25.744;2022-07-11T09:34:11;4.57;;;2.30;;
38693;SDS011;24447;43.460;25.744;2022-07-11T09:36:39;10.95;;;1.85;;
38693;SDS011;24447;43.460;25.744;2022-07-11T09:39:16;9.57;;;1.35;;
38693;SDS011;24447;43.460;25.744;2022-07-11T09:41:46;15.00;;;3.35;;
38693;SDS011;24447;43.460;25.744;2022-07-11T09:44:20;8.63;;;1.92;;
38693;SDS011;24447;43.460;25.744;2022-07-11T09:46:47;6.55;;;1.67;;
38693;SDS011;24447;43.460;25.744;2022-07-11T09:49:15;7.53;;;2.00;;
38693;SDS011;24447;43.460;25.744;2022-07-11T09:51:42;4.50;;;1.38;;
38693;SDS011;24447;43.460;25.744;2022-07-11T09:54:09;5.47;;;1.38;;
38693;SDS011;24447;43.460;25.744;2022-07-11T09:56:43;10.07;;;1.50;;
38693;SDS011;24447;43.460;25.744;2022-07-11T09:59:17;11.60;;;1.80;;
38693;SDS011;24447;43.460;25.744;2022-07-11T10:01:44;3.03;;;1.20;;
38693;SDS011;24447;43.460;25.744;2022-07-11T10:04:10;6.53;;;1.42;;
38693;SDS011;24447;43.460;25.744;2022-07-11T10:06:36;4.22;;;1.25;;
38693;SDS011;24447;43.460;25.744;2022-07-11T10:09:03;2.15;;;1.10;;
38693;SDS011;24447;43.460;25.744;2022-07-11T10:11:30;10.13;;;1.58;;
38693;SDS011;24447;43.460;25.744;2022-07-11T10:13:58;5.30;;;1.35;;
38693;SDS011;24447;43.460;25.744;2022-07-11T10:19:25;9.45;;;1.52;;
38693;SDS011;24447;43.460;25.744;2022-07-11T10:22:06;7.00;;;0.98;;
38693;SDS011;24447;43.460;25.744;2022-07-11T10:30:42;5.18;;;1.65;;
38693;SDS011;24447;43.460;25.744;2022-07-11T10:33:13;4.75;;;1.35;;
38693;SDS011;24447;43.460;25.744;2022-07-11T10:35:43;6.78;;;1.10;;
38693;SDS011;24447;43.460;25.744;2022-07-11T10:38:11;4.93;;;1.20;;
38693;SDS011;24447;43.460;25.744;2022-07-11T10:40:53;4.40;;;1.80;;
38693;SDS011;24447;43.460;25.744;2022-07-11T10:43:38;1.17;;;0.90;;
38693;SDS011;24447;43.460;25.744;2022-07-11T10:46:10;2.72;;;1.05;;
38693;SDS011;24447;43.460;25.744;2022-07-11T10:51:34;5.75;;;1.33;;
38693;SDS011;24447;43.460;25.744;2022-07-11T10:54:12;17.35;;;1.05;;
38693;SDS011;24447;43.460;25.744;2022-07-11T10:56:50;6.72;;;1.08;;
38693;SDS011;24447;43.460;25.744;2022-07-11T10:59:18;2.53;;;0.70;;
38693;SDS011;24447;43.460;25.744;2022-07-11T11:07:30;3.97;;;0.93;;
38693;SDS011;24447;43.460;25.744;2022-07-11T11:26:26;8.63;;;1.25;;
38693;SDS011;24447;43.460;25.744;2022-07-11T11:29:07;8.55;;;1.33;;
38693;SDS011;24447;43.460;25.744;2022-07-11T11:31:33;4.60;;;1.48;;
38693;SDS011;24447;43.460;25.744;2022-07-11T11:34:00;5.55;;;1.20;;
38693;SDS011;24447;43.460;25.744;2022-07-11T11:36:27;3.05;;;1.30;;
38693;SDS011;24447;43.460;25.744;2022-07-11T11:38:54;2.10;;;0.98;;
38693;SDS011;24447;43.460;25.744;2022-07-11T11:41:24;5.43;;;1.25;;
38693;SDS011;24447;43.460;25.744;2022-07-11T11:43:51;6.55;;;1.30;;
38693;SDS011;24447;43.460;25.744;2022-07-11T11:46:18;7.38;;;1.63;;
38693;SDS011;24447;43.460;25.744;2022-07-11T11:48:44;8.40;;;1.20;;
38693;SDS011;24447;43.460;25.744;2022-07-11T11:53:48;2.95;;;1.20;;
38693;SDS011;24447;43.460;25.744;2022-07-11T11:56:20;8.65;;;1.50;;
38693;SDS011;24447;43.460;25.744;2022-07-11T11:58:47;3.47;;;1.55;;
38693;SDS011;24447;43.460;25.744;2022-07-11T12:01:19;2.70;;;1.13;;
38693;SDS011;24447;43.460;25.744;2022-07-11T12:06:13;4.93;;;1.35;;
38693;SDS011;24447;43.460;25.744;2022-07-11T12:08:40;3.90;;;1.50;;
38693;SDS011;24447;43.460;25.744;2022-07-11T12:11:06;7.10;;;1.48;;
38693;SDS011;24447;43.460;25.744;2022-07-11T12:13:32;2.85;;;0.93;;
38693;SDS011;24447;43.460;25.744;2022-07-11T12:15:58;11.60;;;1.42;;
38693;SDS011;24447;43.460;25.744;2022-07-11T12:18:42;6.05;;;1.63;;
38693;SDS011;24447;43.460;25.744;2022-07-11T12:21:12;5.45;;;1.83;;
38693;SDS011;24447;43.460;25.744;2022-07-11T12:23:38;2.45;;;1.40;;
38693;SDS011;24447;43.460;25.744;2022-07-11T12:26:05;8.15;;;1.95;;
38693;SDS011;24447;43.460;25.744;2022-07-11T12:28:34;5.63;;;1.80;;
38693;SDS011;24447;43.460;25.744;2022-07-11T12:31:00;5.18;;;1.55;;
38693;SDS011;24447;43.460;25.744;2022-07-11T12:33:27;7.85;;;2.08;;
38693;SDS011;24447;43.460;25.744;2022-07-11T12:35:54;6.70;;;2.13;;
38693;SDS011;24447;43.460;25.744;2022-07-11T12:38:20;4.22;;;2.05;;
38693;SDS011;24447;43.460;25.744;2022-07-11T12:41:03;6.47;;;2.05;;
38693;SDS011;24447;43.460;25.744;2022-07-11T12:43:42;9.43;;;1.80;;
38693;SDS011;24447;43.460;25.744;2022-07-11T12:46:28;9.77;;;1.70;;
38693;SDS011;24447;43.460;25.744;2022-07-11T12:48:54;6.78;;;2.00;;
38693;SDS011;24447;43.460;25.744;2022-07-11T12:51:54;6.97;;;2.63;;
38693;SDS011;24447;43.460;25.744;2022-07-11T12:54:13;2.28;;;1.63;;
38693;SDS011;24447;43.460;25.744;2022-07-11T12:56:44;3.05;;;1.33;;
38693;SDS011;24447;43.460;25.744;2022-07-11T12:59:19;5.35;;;1.38;;
38693;SDS011;24447;43.460;25.744;2022-07-11T13:04:36;9.40;;;2.08;;
38693;SDS011;24447;43.460;25.744;2022-07-11T13:07:18;7.93;;;1.85;;
38693;SDS011;24447;43.460;25.744;2022-07-11T13:10:10;8.13;;;1.35;;
38693;SDS011;24447;43.460;25.744;2022-07-11T13:12:38;5.85;;;1.23;;
38693;SDS011;24447;43.460;25.744;2022-07-11T13:15:05;6.60;;;1.17;;
38693;SDS011;24447;43.460;25.744;2022-07-11T13:17:56;2.00;;;1.25;;
38693;SDS011;24447;43.460;25.744;2022-07-11T13:20:25;5.85;;;1.30;;
38693;SDS011;24447;43.460;25.744;2022-07-11T13:22:52;4.22;;;1.17;;
38693;SDS011;24447;43.460;25.744;2022-07-11T13:25:19;7.40;;;1.55;;
38693;SDS011;24447;43.460;25.744;2022-07-11T13:27:46;12.55;;;1.70;;
38693;SDS011;24447;43.460;25.744;2022-07-11T13:30:14;7.97;;;1.45;;
38693;SDS011;24447;43.460;25.744;2022-07-11T13:32:44;4.75;;;1.25;;
38693;SDS011;24447;43.460;25.744;2022-07-11T13:35:11;2.05;;;1.35;;
38693;SDS011;24447;43.460;25.744;2022-07-11T13:37:39;4.38;;;1.77;;
38693;SDS011;24447;43.460;25.744;2022-07-11T13:40:07;6.13;;;1.45;;
38693;SDS011;24447;43.460;25.744;2022-07-11T13:42:34;3.63;;;1.13;;
38693;SDS011;24447;43.460;25.744;2022-07-11T13:45:02;7.85;;;1.23;;
38693;SDS011;24447;43.460;25.744;2022-07-11T13:47:29;3.45;;;0.98;;
38693;SDS011;24447;43.460;25.744;2022-07-11T13:49:55;6.47;;;1.63;;
38693;SDS011;24447;43.460;25.744;2022-07-11T13:52:21;9.02;;;1.50;;
38693;SDS011;24447;43.460;25.744;2022-07-11T13:54:47;4.88;;;1.50;;
38693;SDS011;24447;43.460;25.744;2022-07-11T13:57:13;11.45;;;1.80;;
38693;SDS011;24447;43.460;25.744;2022-07-11T13:59:39;4.53;;;1.20;;
38693;SDS011;24447;43.460;25.744;2022-07-11T14:02:06;6.93;;;1.50;;
38693;SDS011;24447;43.460;25.744;2022-07-11T14:04:32;5.93;;;1.60;;
38693;SDS011;24447;43.460;25.744;2022-07-11T14:06:58;6.22;;;1.33;;
38693;SDS011;24447;43.460;25.744;2022-07-11T14:09:24;5.90;;;1.75;;
38693;SDS011;24447;43.460;25.744;2022-07-11T14:11:50;5.63;;;1.30;;
38693;SDS011;24447;43.460;25.744;2022-07-11T14:14:16;9.85;;;1.80;;
38693;SDS011;24447;43.460;25.744;2022-07-11T14:16:42;4.20;;;1.20;;
38693;SDS011;24447;43.460;25.744;2022-07-11T14:19:08;2.97;;;1.30;;
38693;SDS011;24447;43.460;25.744;2022-07-11T14:21:39;8.98;;;1.63;;
38693;SDS011;24447;43.460;25.744;2022-07-11T14:24:06;7.93;;;1.52;;
38693;SDS011;24447;43.460;25.744;2022-07-11T14:26:33;5.85;;;1.60;;
38693;SDS011;24447;43.460;25.744;2022-07-11T14:28:59;5.35;;;1.73;;
38693;SDS011;24447;43.460;25.744;2022-07-11T14:31:26;5.20;;;1.38;;
38693;SDS011;24447;43.460;25.744;2022-07-11T14:33:52;4.90;;;1.70;;
38693;SDS011;24447;43.460;25.744;2022-07-11T14:36:19;7.95;;;1.70;;
38693;SDS011;24447;43.460;25.744;2022-07-11T14:38:45;6.18;;;1.20;;
38693;SDS011;24447;43.460;25.744;2022-07-11T14:41:12;5.80;;;1.30;;
38693;SDS011;24447;43.460;25.744;2022-07-11T14:43:38;5.68;;;1.95;;
38693;SDS011;24447;43.460;25.744;2022-07-11T14:46:05;13.65;;;1.88;;
38693;SDS011;24447;43.460;25.744;2022-07-11T14:48:31;6.03;;;2.00;;
38693;SDS011;24447;43.460;25.744;2022-07-11T14:50:58;5.53;;;1.58;;
38693;SDS011;24447;43.460;25.744;2022-07-11T14:53:24;3.70;;;0.98;;
38693;SDS011;24447;43.460;25.744;2022-07-11T14:55:51;8.65;;;2.30;;
38693;SDS011;24447;43.460;25.744;2022-07-11T14:58:18;6.40;;;1.42;;
38693;SDS011;24447;43.460;25.744;2022-07-11T15:00:44;2.33;;;1.20;;
38693;SDS011;24447;43.460;25.744;2022-07-11T15:03:10;8.50;;;1.52;;
38693;SDS011;24447;43.460;25.744;2022-07-11T15:05:55;5.00;;;1.52;;
38693;SDS011;24447;43.460;25.744;2022-07-11T15:08:22;6.38;;;1.48;;
38693;SDS011;24447;43.460;25.744;2022-07-11T15:11:07;6.13;;;1.80;;
38693;SDS011;24447;43.460;25.744;2022-07-11T15:13:51;2.50;;;1.63;;
38693;SDS011;24447;43.460;25.744;2022-07-11T15:16:17;6.50;;;1.63;;
38693;SDS011;24447;43.460;25.744;2022-07-11T15:18:43;7.85;;;1.70;;
38693;SDS011;24447;43.460;25.744;2022-07-11T15:21:10;9.32;;;2.30;;
38693;SDS011;24447;43.460;25.744;2022-07-11T15:23:36;5.18;;;1.52;;
38693;SDS011;24447;43.460;25.744;2022-07-11T15:26:02;6.18;;;1.77;;
38693;SDS011;24447;43.460;25.744;2022-07-11T15:28:28;3.22;;;2.10;;
38693;SDS011;24447;43.460;25.744;2022-07-11T15:30:54;2.60;;;1.88;;
38693;SDS011;24447;43.460;25.744;2022-07-11T15:33:20;3.53;;;1.50;;